sensor_id;sensor_type;location;lat;lon;timestamp;P1;durP1;ratioP1;P2;durP2;ratioP2
26014;SDS011;13793;55.388;37.844;2024-02-04T00:02:09;40.90;;;19.97;;
26014;SDS011;13793;55.388;37.844;2024-02-04T00:04:42;45.93;;;19.73;;
26014;SDS011;13793;55.388;37.844;2024-02-04T00:07:13;41.23;;;19.83;;
26014;SDS011;13793;55.388;37.844;2024-02-04T00:09:45;38.80;;;19.53;;
26014;SDS011;13793;55.388;37.844;2024-02-04T00:12:15;46.63;;;19.93;;
26014;SDS011;13793;55.388;37.844;2024-02-04T00:14:47;40.70;;;20.77;;
26014;SDS011;13793;55.388;37.844;2024-02-04T00:17:20;40.20;;;19.10;;
26014;SDS011;13793;55.388;37.844;2024-02-04T00:19:51;42.37;;;20.37;;
26014;SDS011;13793;55.388;37.844;2024-02-04T00:22:22;34.90;;;19.20;;
26014;SDS011;13793;55.388;37.844;2024-02-04T00:24:53;38.83;;;19.47;;
26014;SDS011;13793;55.388;37.844;2024-02-04T00:27:26;39.57;;;18.80;;
26014;SDS011;13793;55.388;37.844;2024-02-04T00:29:57;41.57;;;19.33;;
26014;SDS011;13793;55.388;37.844;2024-02-04T00:32:30;37.97;;;19.00;;
26014;SDS011;13793;55.388;37.844;2024-02-04T00:35:00;38.70;;;19.27;;
26014;SDS011;13793;55.388;37.844;2024-02-04T00:37:32;38.70;;;18.57;;
26014;SDS011;13793;55.388;37.844;2024-02-04T00:40:03;39.17;;;18.53;;
26014;SDS011;13793;55.388;37.844;2024-02-04T00:42:35;33.47;;;17.07;;
26014;SDS011;13793;55.388;37.844;2024-02-04T00:45:06;37.53;;;17.23;;
26014;SDS011;13793;55.388;37.844;2024-02-04T00:47:37;30.20;;;15.53;;
26014;SDS011;13793;55.388;37.844;2024-02-04T00:50:08;38.77;;;16.27;;
26014;SDS011;13793;55.388;37.844;2024-02-04T00:52:39;37.50;;;16.50;;
26014;SDS011;13793;55.388;37.844;2024-02-04T00:55:11;31.60;;;15.80;;
26014;SDS011;13793;55.388;37.844;2024-02-04T00:57:42;31.30;;;14.53;;
26014;SDS011;13793;55.388;37.844;2024-02-04T01:00:13;28.20;;;14.77;;
26014;SDS011;13793;55.388;37.844;2024-02-04T01:02:45;30.77;;;14.47;;
26014;SDS011;13793;55.388;37.844;2024-02-04T01:05:16;29.70;;;14.80;;
26014;SDS011;13793;55.388;37.844;2024-02-04T01:07:47;26.63;;;13.30;;
26014;SDS011;13793;55.388;37.844;2024-02-04T01:10:19;22.40;;;13.03;;
26014;SDS011;13793;55.388;37.844;2024-02-04T01:12:50;23.50;;;12.40;;
26014;SDS011;13793;55.388;37.844;2024-02-04T01:15:21;22.30;;;11.60;;
26014;SDS011;13793;55.388;37.844;2024-02-04T01:17:52;21.30;;;11.53;;
26014;SDS011;13793;55.388;37.844;2024-02-04T01:20:23;20.50;;;11.17;;
26014;SDS011;13793;55.388;37.844;2024-02-04T01:22:54;22.07;;;11.07;;
26014;SDS011;13793;55.388;37.844;2024-02-04T01:25:24;19.03;;;10.53;;
26014;SDS011;13793;55.388;37.844;2024-02-04T01:27:55;17.03;;;9.53;;
26014;SDS011;13793;55.388;37.844;2024-02-04T01:30:26;19.20;;;10.20;;
26014;SDS011;13793;55.388;37.844;2024-02-04T01:32:59;18.23;;;9.87;;
26014;SDS011;13793;55.388;37.844;2024-02-04T01:35:31;16.90;;;9.33;;
26014;SDS011;13793;55.388;37.844;2024-02-04T01:38:02;15.70;;;9.63;;
26014;SDS011;13793;55.388;37.844;2024-02-04T01:40:33;17.57;;;9.80;;
26014;SDS011;13793;55.388;37.844;2024-02-04T01:43:04;18.10;;;9.80;;
26014;SDS011;13793;55.388;37.844;2024-02-04T01:45:35;16.23;;;9.00;;
26014;SDS011;13793;55.388;37.844;2024-02-04T01:48:06;14.20;;;8.37;;
26014;SDS011;13793;55.388;37.844;2024-02-04T01:50:38;17.53;;;8.93;;
26014;SDS011;13793;55.388;37.844;2024-02-04T01:53:09;14.63;;;9.03;;
26014;SDS011;13793;55.388;37.844;2024-02-04T01:55:40;15.97;;;9.03;;
26014;SDS011;13793;55.388;37.844;2024-02-04T01:58:11;16.63;;;9.40;;
26014;SDS011;13793;55.388;37.844;2024-02-04T02:00:42;19.60;;;9.60;;
26014;SDS011;13793;55.388;37.844;2024-02-04T02:03:13;19.47;;;9.40;;
26014;SDS011;13793;55.388;37.844;2024-02-04T02:05:47;16.27;;;8.93;;
26014;SDS011;13793;55.388;37.844;2024-02-04T02:08:19;20.87;;;9.50;;
26014;SDS011;13793;55.388;37.844;2024-02-04T02:10:50;20.97;;;10.07;;
26014;SDS011;13793;55.388;37.844;2024-02-04T02:13:24;15.27;;;8.30;;
26014;SDS011;13793;55.388;37.844;2024-02-04T02:16:03;14.53;;;8.43;;
26014;SDS011;13793;55.388;37.844;2024-02-04T02:18:34;17.30;;;8.80;;
26014;SDS011;13793;55.388;37.844;2024-02-04T02:24:14;16.07;;;8.83;;
26014;SDS011;13793;55.388;37.844;2024-02-04T02:26:54;12.87;;;7.17;;
26014;SDS011;13793;55.388;37.844;2024-02-04T02:29:27;13.53;;;7.43;;
26014;SDS011;13793;55.388;37.844;2024-02-04T02:31:58;13.37;;;7.43;;
26014;SDS011;13793;55.388;37.844;2024-02-04T02:34:32;14.93;;;7.63;;
26014;SDS011;13793;55.388;37.844;2024-02-04T02:39:59;12.53;;;7.47;;
26014;SDS011;13793;55.388;37.844;2024-02-04T02:42:35;14.25;;;7.90;;
26014;SDS011;13793;55.388;37.844;2024-02-04T02:45:07;13.67;;;7.17;;
26014;SDS011;13793;55.388;37.844;2024-02-04T02:47:39;12.33;;;7.13;;
26014;SDS011;13793;55.388;37.844;2024-02-04T02:50:11;13.80;;;7.47;;
26014;SDS011;13793;55.388;37.844;2024-02-04T02:52:42;13.17;;;6.97;;
26014;SDS011;13793;55.388;37.844;2024-02-04T02:55:14;12.37;;;6.87;;
26014;SDS011;13793;55.388;37.844;2024-02-04T02:57:45;14.33;;;7.37;;
26014;SDS011;13793;55.388;37.844;2024-02-04T03:00:16;14.13;;;7.73;;
26014;SDS011;13793;55.388;37.844;2024-02-04T03:02:48;15.03;;;7.03;;
26014;SDS011;13793;55.388;37.844;2024-02-04T03:05:19;15.50;;;7.93;;
26014;SDS011;13793;55.388;37.844;2024-02-04T03:07:50;13.17;;;7.13;;
26014;SDS011;13793;55.388;37.844;2024-02-04T03:10:22;13.20;;;7.10;;
26014;SDS011;13793;55.388;37.844;2024-02-04T03:12:53;13.17;;;7.03;;
26014;SDS011;13793;55.388;37.844;2024-02-04T03:15:24;11.90;;;6.50;;
26014;SDS011;13793;55.388;37.844;2024-02-04T03:17:56;10.07;;;5.83;;
26014;SDS011;13793;55.388;37.844;2024-02-04T03:20:27;10.53;;;6.17;;
26014;SDS011;13793;55.388;37.844;2024-02-04T03:22:58;10.70;;;6.23;;
26014;SDS011;13793;55.388;37.844;2024-02-04T03:25:29;12.80;;;6.73;;
26014;SDS011;13793;55.388;37.844;2024-02-04T03:28:00;11.03;;;5.37;;
26014;SDS011;13793;55.388;37.844;2024-02-04T03:30:32;10.00;;;5.40;;
26014;SDS011;13793;55.388;37.844;2024-02-04T03:33:03;11.97;;;5.67;;
26014;SDS011;13793;55.388;37.844;2024-02-04T03:35:34;9.47;;;6.00;;
26014;SDS011;13793;55.388;37.844;2024-02-04T03:38:06;9.17;;;5.37;;
26014;SDS011;13793;55.388;37.844;2024-02-04T03:40:37;10.60;;;5.90;;
26014;SDS011;13793;55.388;37.844;2024-02-04T03:43:11;10.23;;;5.70;;
26014;SDS011;13793;55.388;37.844;2024-02-04T03:45:42;10.90;;;5.37;;
26014;SDS011;13793;55.388;37.844;2024-02-04T03:48:13;11.27;;;5.77;;
26014;SDS011;13793;55.388;37.844;2024-02-04T03:50:44;11.07;;;5.93;;
26014;SDS011;13793;55.388;37.844;2024-02-04T03:53:16;12.73;;;6.17;;
26014;SDS011;13793;55.388;37.844;2024-02-04T03:55:48;12.27;;;6.13;;
26014;SDS011;13793;55.388;37.844;2024-02-04T03:58:22;16.47;;;6.07;;
26014;SDS011;13793;55.388;37.844;2024-02-04T04:00:55;11.10;;;5.53;;
26014;SDS011;13793;55.388;37.844;2024-02-04T04:03:26;11.20;;;5.60;;
26014;SDS011;13793;55.388;37.844;2024-02-04T04:05:58;10.63;;;5.17;;
26014;SDS011;13793;55.388;37.844;2024-02-04T04:08:29;10.83;;;5.20;;
26014;SDS011;13793;55.388;37.844;2024-02-04T04:11:00;7.83;;;4.60;;
26014;SDS011;13793;55.388;37.844;2024-02-04T04:13:31;12.87;;;4.80;;
26014;SDS011;13793;55.388;37.844;2024-02-04T04:16:03;9.27;;;4.33;;
26014;SDS011;13793;55.388;37.844;2024-02-04T04:18:35;8.10;;;4.30;;
26014;SDS011;13793;55.388;37.844;2024-02-04T04:21:06;8.37;;;4.37;;
26014;SDS011;13793;55.388;37.844;2024-02-04T04:23:37;6.47;;;3.50;;
26014;SDS011;13793;55.388;37.844;2024-02-04T04:26:11;5.67;;;3.60;;
26014;SDS011;13793;55.388;37.844;2024-02-04T04:28:42;6.20;;;3.20;;
26014;SDS011;13793;55.388;37.844;2024-02-04T04:31:13;5.63;;;2.87;;
26014;SDS011;13793;55.388;37.844;2024-02-04T04:33:44;4.17;;;2.47;;
26014;SDS011;13793;55.388;37.844;2024-02-04T04:36:16;3.03;;;2.37;;
26014;SDS011;13793;55.388;37.844;2024-02-04T04:38:47;4.03;;;2.57;;
26014;SDS011;13793;55.388;37.844;2024-02-04T04:41:19;3.90;;;2.70;;
26014;SDS011;13793;55.388;37.844;2024-02-04T04:43:50;3.73;;;2.70;;
26014;SDS011;13793;55.388;37.844;2024-02-04T04:46:22;3.33;;;2.53;;
26014;SDS011;13793;55.388;37.844;2024-02-04T04:48:52;4.10;;;2.80;;
26014;SDS011;13793;55.388;37.844;2024-02-04T04:51:25;6.40;;;3.30;;
26014;SDS011;13793;55.388;37.844;2024-02-04T04:53:57;3.90;;;3.17;;
26014;SDS011;13793;55.388;37.844;2024-02-04T04:56:28;5.50;;;2.70;;
26014;SDS011;13793;55.388;37.844;2024-02-04T04:58:58;5.57;;;2.70;;
26014;SDS011;13793;55.388;37.844;2024-02-04T05:01:29;4.87;;;2.80;;
26014;SDS011;13793;55.388;37.844;2024-02-04T05:04:00;5.10;;;2.57;;
26014;SDS011;13793;55.388;37.844;2024-02-04T05:06:32;5.43;;;2.50;;
26014;SDS011;13793;55.388;37.844;2024-02-04T05:09:03;4.90;;;2.80;;
26014;SDS011;13793;55.388;37.844;2024-02-04T05:11:35;3.97;;;2.87;;
26014;SDS011;13793;55.388;37.844;2024-02-04T05:14:06;4.00;;;2.57;;
26014;SDS011;13793;55.388;37.844;2024-02-04T05:16:37;3.70;;;2.70;;
26014;SDS011;13793;55.388;37.844;2024-02-04T05:19:09;6.03;;;3.47;;
26014;SDS011;13793;55.388;37.844;2024-02-04T05:21:40;7.23;;;3.70;;
26014;SDS011;13793;55.388;37.844;2024-02-04T05:24:12;7.53;;;3.57;;
26014;SDS011;13793;55.388;37.844;2024-02-04T05:26:43;5.73;;;3.70;;
26014;SDS011;13793;55.388;37.844;2024-02-04T05:29:14;7.73;;;4.00;;
26014;SDS011;13793;55.388;37.844;2024-02-04T05:31:45;8.40;;;3.83;;
26014;SDS011;13793;55.388;37.844;2024-02-04T05:34:17;5.63;;;3.23;;
26014;SDS011;13793;55.388;37.844;2024-02-04T05:36:48;4.07;;;2.73;;
26014;SDS011;13793;55.388;37.844;2024-02-04T05:39:19;5.20;;;3.10;;
26014;SDS011;13793;55.388;37.844;2024-02-04T05:41:51;5.13;;;2.10;;
26014;SDS011;13793;55.388;37.844;2024-02-04T05:44:22;3.27;;;2.00;;
26014;SDS011;13793;55.388;37.844;2024-02-04T05:46:53;3.60;;;2.20;;
26014;SDS011;13793;55.388;37.844;2024-02-04T05:49:24;4.33;;;1.70;;
26014;SDS011;13793;55.388;37.844;2024-02-04T05:51:55;2.60;;;1.70;;
26014;SDS011;13793;55.388;37.844;2024-02-04T05:54:27;4.23;;;1.80;;
26014;SDS011;13793;55.388;37.844;2024-02-04T05:56:58;3.97;;;1.67;;
26014;SDS011;13793;55.388;37.844;2024-02-04T05:59:29;3.40;;;1.80;;
26014;SDS011;13793;55.388;37.844;2024-02-04T06:02:00;3.27;;;1.70;;
26014;SDS011;13793;55.388;37.844;2024-02-04T06:04:31;2.20;;;1.30;;
26014;SDS011;13793;55.388;37.844;2024-02-04T06:07:03;3.90;;;1.30;;
26014;SDS011;13793;55.388;37.844;2024-02-04T06:09:35;2.83;;;1.10;;
26014;SDS011;13793;55.388;37.844;2024-02-04T06:12:09;1.27;;;0.87;;
26014;SDS011;13793;55.388;37.844;2024-02-04T06:14:40;3.27;;;0.73;;
26014;SDS011;13793;55.388;37.844;2024-02-04T06:17:11;1.73;;;0.87;;
26014;SDS011;13793;55.388;37.844;2024-02-04T06:19:42;1.03;;;0.80;;
26014;SDS011;13793;55.388;37.844;2024-02-04T06:22:14;2.00;;;0.60;;
26014;SDS011;13793;55.388;37.844;2024-02-04T06:24:46;1.10;;;0.70;;
26014;SDS011;13793;55.388;37.844;2024-02-04T06:27:18;1.23;;;0.63;;
26014;SDS011;13793;55.388;37.844;2024-02-04T06:29:49;1.40;;;0.80;;
26014;SDS011;13793;55.388;37.844;2024-02-04T06:32:20;2.20;;;0.70;;
26014;SDS011;13793;55.388;37.844;2024-02-04T06:34:52;1.43;;;0.60;;
26014;SDS011;13793;55.388;37.844;2024-02-04T06:37:24;1.23;;;0.63;;
26014;SDS011;13793;55.388;37.844;2024-02-04T06:39:55;0.60;;;0.60;;
26014;SDS011;13793;55.388;37.844;2024-02-04T06:42:26;0.83;;;0.67;;
26014;SDS011;13793;55.388;37.844;2024-02-04T06:44:57;0.90;;;0.70;;
26014;SDS011;13793;55.388;37.844;2024-02-04T06:47:30;0.70;;;0.50;;
26014;SDS011;13793;55.388;37.844;2024-02-04T06:50:01;0.80;;;0.60;;
26014;SDS011;13793;55.388;37.844;2024-02-04T06:52:33;0.70;;;0.50;;
26014;SDS011;13793;55.388;37.844;2024-02-04T06:55:04;0.67;;;0.63;;
26014;SDS011;13793;55.388;37.844;2024-02-04T06:57:35;1.57;;;0.60;;
26014;SDS011;13793;55.388;37.844;2024-02-04T07:00:07;1.93;;;1.33;;
26014;SDS011;13793;55.388;37.844;2024-02-04T07:02:38;1.93;;;1.47;;
26014;SDS011;13793;55.388;37.844;2024-02-04T07:05:08;1.00;;;0.60;;
26014;SDS011;13793;55.388;37.844;2024-02-04T07:07:39;0.47;;;0.47;;
26014;SDS011;13793;55.388;37.844;2024-02-04T07:10:10;1.67;;;0.70;;
26014;SDS011;13793;55.388;37.844;2024-02-04T07:12:41;1.37;;;0.90;;
26014;SDS011;13793;55.388;37.844;2024-02-04T07:15:12;0.93;;;0.70;;
26014;SDS011;13793;55.388;37.844;2024-02-04T07:17:43;1.03;;;0.83;;
26014;SDS011;13793;55.388;37.844;2024-02-04T07:20:14;1.37;;;0.90;;
26014;SDS011;13793;55.388;37.844;2024-02-04T07:22:46;1.57;;;0.90;;
26014;SDS011;13793;55.388;37.844;2024-02-04T07:25:16;1.30;;;0.90;;
26014;SDS011;13793;55.388;37.844;2024-02-04T07:27:48;1.50;;;0.67;;
26014;SDS011;13793;55.388;37.844;2024-02-04T07:30:19;2.47;;;1.00;;
26014;SDS011;13793;55.388;37.844;2024-02-04T07:32:49;1.30;;;0.77;;
26014;SDS011;13793;55.388;37.844;2024-02-04T07:35:20;1.17;;;0.97;;
26014;SDS011;13793;55.388;37.844;2024-02-04T07:37:51;2.57;;;1.70;;
26014;SDS011;13793;55.388;37.844;2024-02-04T07:40:22;1.43;;;1.17;;
26014;SDS011;13793;55.388;37.844;2024-02-04T07:42:53;1.60;;;1.10;;
26014;SDS011;13793;55.388;37.844;2024-02-04T07:45:24;3.90;;;1.00;;
26014;SDS011;13793;55.388;37.844;2024-02-04T07:47:55;0.70;;;0.50;;
26014;SDS011;13793;55.388;37.844;2024-02-04T07:50:26;2.17;;;1.20;;
26014;SDS011;13793;55.388;37.844;2024-02-04T07:52:56;1.87;;;1.00;;
26014;SDS011;13793;55.388;37.844;2024-02-04T07:55:27;1.13;;;0.70;;
26014;SDS011;13793;55.388;37.844;2024-02-04T07:57:58;1.00;;;0.70;;
26014;SDS011;13793;55.388;37.844;2024-02-04T08:00:29;1.73;;;0.63;;
26014;SDS011;13793;55.388;37.844;2024-02-04T08:03:00;1.53;;;0.77;;
26014;SDS011;13793;55.388;37.844;2024-02-04T08:05:31;2.63;;;0.90;;
26014;SDS011;13793;55.388;37.844;2024-02-04T08:08:03;0.87;;;0.70;;
26014;SDS011;13793;55.388;37.844;2024-02-04T08:10:34;1.83;;;0.90;;
26014;SDS011;13793;55.388;37.844;2024-02-04T08:13:05;2.20;;;1.27;;
26014;SDS011;13793;55.388;37.844;2024-02-04T08:15:36;2.03;;;1.10;;
26014;SDS011;13793;55.388;37.844;2024-02-04T08:18:07;4.10;;;0.90;;
26014;SDS011;13793;55.388;37.844;2024-02-04T08:20:38;3.60;;;1.40;;
26014;SDS011;13793;55.388;37.844;2024-02-04T08:23:09;3.23;;;1.30;;
26014;SDS011;13793;55.388;37.844;2024-02-04T08:25:40;2.57;;;1.40;;
26014;SDS011;13793;55.388;37.844;2024-02-04T08:28:11;3.57;;;1.00;;
26014;SDS011;13793;55.388;37.844;2024-02-04T08:30:42;2.47;;;0.93;;
26014;SDS011;13793;55.388;37.844;2024-02-04T08:33:13;2.97;;;0.80;;
26014;SDS011;13793;55.388;37.844;2024-02-04T08:35:44;2.23;;;1.67;;
26014;SDS011;13793;55.388;37.844;2024-02-04T08:38:15;2.37;;;0.80;;
26014;SDS011;13793;55.388;37.844;2024-02-04T08:40:48;3.23;;;1.10;;
26014;SDS011;13793;55.388;37.844;2024-02-04T08:43:19;1.10;;;0.77;;
26014;SDS011;13793;55.388;37.844;2024-02-04T08:45:50;2.00;;;0.90;;
26014;SDS011;13793;55.388;37.844;2024-02-04T08:48:24;0.97;;;0.70;;
26014;SDS011;13793;55.388;37.844;2024-02-04T08:50:55;3.10;;;0.87;;
26014;SDS011;13793;55.388;37.844;2024-02-04T08:53:26;1.97;;;0.73;;
26014;SDS011;13793;55.388;37.844;2024-02-04T08:55:57;1.27;;;0.97;;
26014;SDS011;13793;55.388;37.844;2024-02-04T08:58:28;2.77;;;0.90;;
26014;SDS011;13793;55.388;37.844;2024-02-04T09:00:59;5.63;;;1.20;;
26014;SDS011;13793;55.388;37.844;2024-02-04T09:03:30;2.67;;;1.33;;
26014;SDS011;13793;55.388;37.844;2024-02-04T09:06:02;3.03;;;1.30;;
26014;SDS011;13793;55.388;37.844;2024-02-04T09:08:33;3.77;;;2.27;;
26014;SDS011;13793;55.388;37.844;2024-02-04T09:11:04;4.40;;;1.83;;
26014;SDS011;13793;55.388;37.844;2024-02-04T09:13:35;3.90;;;1.60;;
26014;SDS011;13793;55.388;37.844;2024-02-04T09:16:06;1.97;;;1.30;;
26014;SDS011;13793;55.388;37.844;2024-02-04T09:18:38;4.47;;;1.60;;
26014;SDS011;13793;55.388;37.844;2024-02-04T09:21:09;4.00;;;1.80;;
26014;SDS011;13793;55.388;37.844;2024-02-04T09:23:40;4.87;;;1.80;;
26014;SDS011;13793;55.388;37.844;2024-02-04T09:26:11;3.40;;;1.70;;
26014;SDS011;13793;55.388;37.844;2024-02-04T09:28:42;3.97;;;1.60;;
26014;SDS011;13793;55.388;37.844;2024-02-04T09:31:13;5.77;;;1.90;;
26014;SDS011;13793;55.388;37.844;2024-02-04T09:33:44;6.90;;;1.60;;
26014;SDS011;13793;55.388;37.844;2024-02-04T09:36:15;5.83;;;2.10;;
26014;SDS011;13793;55.388;37.844;2024-02-04T09:38:46;3.93;;;1.57;;
26014;SDS011;13793;55.388;37.844;2024-02-04T09:41:17;7.87;;;1.97;;
26014;SDS011;13793;55.388;37.844;2024-02-04T09:43:49;6.03;;;1.73;;
26014;SDS011;13793;55.388;37.844;2024-02-04T09:46:20;5.43;;;1.90;;
26014;SDS011;13793;55.388;37.844;2024-02-04T09:48:51;5.23;;;1.40;;
26014;SDS011;13793;55.388;37.844;2024-02-04T09:51:25;6.27;;;1.80;;
26014;SDS011;13793;55.388;37.844;2024-02-04T09:53:57;5.77;;;1.50;;
26014;SDS011;13793;55.388;37.844;2024-02-04T09:56:29;4.60;;;1.60;;
26014;SDS011;13793;55.388;37.844;2024-02-04T09:59:01;6.33;;;1.40;;
26014;SDS011;13793;55.388;37.844;2024-02-04T10:01:32;5.10;;;1.60;;
26014;SDS011;13793;55.388;37.844;2024-02-04T10:04:04;9.00;;;1.80;;
26014;SDS011;13793;55.388;37.844;2024-02-04T10:06:35;7.17;;;1.67;;
26014;SDS011;13793;55.388;37.844;2024-02-04T10:09:08;5.10;;;1.60;;
26014;SDS011;13793;55.388;37.844;2024-02-04T10:11:39;6.30;;;1.87;;
26014;SDS011;13793;55.388;37.844;2024-02-04T10:14:10;6.57;;;1.80;;
26014;SDS011;13793;55.388;37.844;2024-02-04T10:16:41;8.70;;;2.40;;
26014;SDS011;13793;55.388;37.844;2024-02-04T10:19:12;8.90;;;2.90;;
26014;SDS011;13793;55.388;37.844;2024-02-04T10:21:42;8.80;;;2.73;;
26014;SDS011;13793;55.388;37.844;2024-02-04T10:24:13;6.80;;;2.23;;
26014;SDS011;13793;55.388;37.844;2024-02-04T10:26:44;7.07;;;2.60;;
26014;SDS011;13793;55.388;37.844;2024-02-04T10:29:17;6.13;;;2.00;;
26014;SDS011;13793;55.388;37.844;2024-02-04T10:31:48;8.00;;;2.23;;
26014;SDS011;13793;55.388;37.844;2024-02-04T10:34:21;5.23;;;2.00;;
26014;SDS011;13793;55.388;37.844;2024-02-04T10:36:53;10.97;;;3.10;;
26014;SDS011;13793;55.388;37.844;2024-02-04T10:39:24;9.33;;;2.80;;
26014;SDS011;13793;55.388;37.844;2024-02-04T10:41:55;11.87;;;3.93;;
26014;SDS011;13793;55.388;37.844;2024-02-04T10:44:28;10.33;;;3.20;;
26014;SDS011;13793;55.388;37.844;2024-02-04T10:46:59;8.73;;;2.57;;
26014;SDS011;13793;55.388;37.844;2024-02-04T10:49:32;5.30;;;1.80;;
26014;SDS011;13793;55.388;37.844;2024-02-04T10:52:06;6.83;;;1.70;;
26014;SDS011;13793;55.388;37.844;2024-02-04T10:54:37;6.27;;;2.20;;
26014;SDS011;13793;55.388;37.844;2024-02-04T10:57:12;8.40;;;1.83;;
26014;SDS011;13793;55.388;37.844;2024-02-04T10:59:43;8.67;;;1.77;;
26014;SDS011;13793;55.388;37.844;2024-02-04T11:02:17;8.57;;;2.20;;
26014;SDS011;13793;55.388;37.844;2024-02-04T11:04:50;4.67;;;1.70;;
26014;SDS011;13793;55.388;37.844;2024-02-04T11:07:21;5.80;;;1.83;;
26014;SDS011;13793;55.388;37.844;2024-02-04T11:09:52;7.53;;;2.03;;
26014;SDS011;13793;55.388;37.844;2024-02-04T11:12:23;5.53;;;1.70;;
26014;SDS011;13793;55.388;37.844;2024-02-04T11:14:55;6.10;;;1.70;;
26014;SDS011;13793;55.388;37.844;2024-02-04T11:17:41;5.97;;;1.83;;
26014;SDS011;13793;55.388;37.844;2024-02-04T11:20:21;6.80;;;1.80;;
26014;SDS011;13793;55.388;37.844;2024-02-04T11:25:59;6.93;;;1.93;;
26014;SDS011;13793;55.388;37.844;2024-02-04T11:28:30;6.23;;;1.90;;
26014;SDS011;13793;55.388;37.844;2024-02-04T11:31:01;5.37;;;1.90;;
26014;SDS011;13793;55.388;37.844;2024-02-04T11:33:33;7.10;;;2.50;;
26014;SDS011;13793;55.388;37.844;2024-02-04T11:36:04;8.40;;;2.20;;
26014;SDS011;13793;55.388;37.844;2024-02-04T11:38:38;4.67;;;1.73;;
26014;SDS011;13793;55.388;37.844;2024-02-04T11:41:10;6.80;;;2.97;;
26014;SDS011;13793;55.388;37.844;2024-02-04T11:43:42;5.97;;;2.40;;
26014;SDS011;13793;55.388;37.844;2024-02-04T11:46:17;4.80;;;1.33;;
26014;SDS011;13793;55.388;37.844;2024-02-04T11:48:52;7.07;;;2.77;;
26014;SDS011;13793;55.388;37.844;2024-02-04T11:51:22;3.73;;;1.87;;
26014;SDS011;13793;55.388;37.844;2024-02-04T11:53:54;2.83;;;1.20;;
26014;SDS011;13793;55.388;37.844;2024-02-04T11:56:25;5.13;;;1.73;;
26014;SDS011;13793;55.388;37.844;2024-02-04T11:58:57;4.07;;;1.17;;
26014;SDS011;13793;55.388;37.844;2024-02-04T12:01:29;4.20;;;1.47;;
26014;SDS011;13793;55.388;37.844;2024-02-04T12:04:12;4.60;;;1.10;;
26014;SDS011;13793;55.388;37.844;2024-02-04T12:06:44;3.57;;;1.50;;
26014;SDS011;13793;55.388;37.844;2024-02-04T12:09:19;3.43;;;1.20;;
26014;SDS011;13793;55.388;37.844;2024-02-04T12:11:51;3.43;;;1.10;;
26014;SDS011;13793;55.388;37.844;2024-02-04T12:14:24;3.63;;;1.00;;
26014;SDS011;13793;55.388;37.844;2024-02-04T12:16:59;3.27;;;0.97;;
26014;SDS011;13793;55.388;37.844;2024-02-04T12:19:38;3.13;;;1.00;;
26014;SDS011;13793;55.388;37.844;2024-02-04T12:22:09;3.37;;;0.80;;
26014;SDS011;13793;55.388;37.844;2024-02-04T12:24:40;1.77;;;0.87;;
26014;SDS011;13793;55.388;37.844;2024-02-04T12:27:15;3.23;;;0.90;;
26014;SDS011;13793;55.388;37.844;2024-02-04T12:29:46;6.47;;;2.23;;
26014;SDS011;13793;55.388;37.844;2024-02-04T12:32:20;4.73;;;2.20;;
26014;SDS011;13793;55.388;37.844;2024-02-04T12:34:51;3.60;;;1.30;;
26014;SDS011;13793;55.388;37.844;2024-02-04T12:37:24;2.50;;;1.10;;
26014;SDS011;13793;55.388;37.844;2024-02-04T12:39:56;2.30;;;1.00;;
26014;SDS011;13793;55.388;37.844;2024-02-04T12:42:29;2.43;;;0.90;;
26014;SDS011;13793;55.388;37.844;2024-02-04T12:45:00;2.47;;;1.30;;
26014;SDS011;13793;55.388;37.844;2024-02-04T12:47:32;1.77;;;0.80;;
26014;SDS011;13793;55.388;37.844;2024-02-04T12:50:03;3.70;;;1.37;;
26014;SDS011;13793;55.388;37.844;2024-02-04T12:52:36;2.97;;;1.37;;
26014;SDS011;13793;55.388;37.844;2024-02-04T12:55:08;1.53;;;0.70;;
26014;SDS011;13793;55.388;37.844;2024-02-04T12:58:00;3.93;;;1.00;;
26014;SDS011;13793;55.388;37.844;2024-02-04T13:00:36;2.13;;;0.90;;
26014;SDS011;13793;55.388;37.844;2024-02-04T13:03:08;2.27;;;0.90;;
26014;SDS011;13793;55.388;37.844;2024-02-04T13:05:39;2.60;;;1.10;;
26014;SDS011;13793;55.388;37.844;2024-02-04T13:08:11;2.90;;;1.17;;
26014;SDS011;13793;55.388;37.844;2024-02-04T13:10:42;4.43;;;1.20;;
26014;SDS011;13793;55.388;37.844;2024-02-04T13:13:14;2.17;;;1.07;;
26014;SDS011;13793;55.388;37.844;2024-02-04T13:15:46;2.30;;;1.13;;
26014;SDS011;13793;55.388;37.844;2024-02-04T13:18:17;3.00;;;1.33;;
26014;SDS011;13793;55.388;37.844;2024-02-04T13:20:48;2.07;;;1.03;;
26014;SDS011;13793;55.388;37.844;2024-02-04T13:23:19;2.10;;;1.17;;
26014;SDS011;13793;55.388;37.844;2024-02-04T13:25:51;1.80;;;0.97;;
26014;SDS011;13793;55.388;37.844;2024-02-04T13:28:22;9.27;;;4.00;;
26014;SDS011;13793;55.388;37.844;2024-02-04T13:30:53;3.57;;;1.30;;
26014;SDS011;13793;55.388;37.844;2024-02-04T13:33:24;3.13;;;1.07;;
26014;SDS011;13793;55.388;37.844;2024-02-04T13:35:55;2.43;;;1.30;;
26014;SDS011;13793;55.388;37.844;2024-02-04T13:38:27;1.67;;;0.80;;
26014;SDS011;13793;55.388;37.844;2024-02-04T13:40:58;2.70;;;0.90;;
26014;SDS011;13793;55.388;37.844;2024-02-04T13:43:30;1.57;;;0.70;;
26014;SDS011;13793;55.388;37.844;2024-02-04T13:46:01;1.90;;;1.00;;
26014;SDS011;13793;55.388;37.844;2024-02-04T13:48:32;2.40;;;0.90;;
26014;SDS011;13793;55.388;37.844;2024-02-04T13:51:06;2.27;;;1.30;;
26014;SDS011;13793;55.388;37.844;2024-02-04T13:53:38;9.40;;;3.57;;
26014;SDS011;13793;55.388;37.844;2024-02-04T13:56:09;4.40;;;2.20;;
26014;SDS011;13793;55.388;37.844;2024-02-04T13:58:40;2.00;;;1.30;;
26014;SDS011;13793;55.388;37.844;2024-02-04T14:01:11;2.17;;;1.23;;
26014;SDS011;13793;55.388;37.844;2024-02-04T14:03:44;2.80;;;1.47;;
26014;SDS011;13793;55.388;37.844;2024-02-04T14:06:15;2.83;;;1.43;;
26014;SDS011;13793;55.388;37.844;2024-02-04T14:08:46;1.77;;;1.27;;
26014;SDS011;13793;55.388;37.844;2024-02-04T14:11:17;3.20;;;1.37;;
26014;SDS011;13793;55.388;37.844;2024-02-04T14:13:49;3.17;;;1.27;;
26014;SDS011;13793;55.388;37.844;2024-02-04T14:16:21;4.37;;;2.07;;
26014;SDS011;13793;55.388;37.844;2024-02-04T14:18:52;3.70;;;2.00;;
26014;SDS011;13793;55.388;37.844;2024-02-04T14:21:23;3.47;;;2.23;;
26014;SDS011;13793;55.388;37.844;2024-02-04T14:23:54;5.53;;;2.40;;
26014;SDS011;13793;55.388;37.844;2024-02-04T14:26:25;3.97;;;1.70;;
26014;SDS011;13793;55.388;37.844;2024-02-04T14:28:56;3.27;;;1.40;;
26014;SDS011;13793;55.388;37.844;2024-02-04T14:31:28;4.63;;;2.13;;
26014;SDS011;13793;55.388;37.844;2024-02-04T14:33:59;6.43;;;1.80;;
26014;SDS011;13793;55.388;37.844;2024-02-04T14:36:30;4.27;;;1.10;;
26014;SDS011;13793;55.388;37.844;2024-02-04T14:39:01;3.10;;;1.20;;
26014;SDS011;13793;55.388;37.844;2024-02-04T14:41:37;4.60;;;1.47;;
26014;SDS011;13793;55.388;37.844;2024-02-04T14:44:08;1.90;;;0.90;;
26014;SDS011;13793;55.388;37.844;2024-02-04T14:46:40;4.17;;;1.40;;
26014;SDS011;13793;55.388;37.844;2024-02-04T14:49:11;1.63;;;1.10;;
26014;SDS011;13793;55.388;37.844;2024-02-04T14:51:42;2.50;;;1.00;;
26014;SDS011;13793;55.388;37.844;2024-02-04T14:54:14;4.93;;;1.20;;
26014;SDS011;13793;55.388;37.844;2024-02-04T14:56:45;2.60;;;1.00;;
26014;SDS011;13793;55.388;37.844;2024-02-04T14:59:19;1.53;;;0.80;;
26014;SDS011;13793;55.388;37.844;2024-02-04T15:01:50;1.90;;;1.00;;
26014;SDS011;13793;55.388;37.844;2024-02-04T15:04:21;3.13;;;0.97;;